createdAt,value
2022-12-18T00:01:34.057Z,51.20
2022-12-18T00:04:01.989Z,51.23
2022-12-18T00:06:29.443Z,48.23
2022-12-18T00:08:56.963Z,44.37
2022-12-18T00:11:25.233Z,50.00
2022-12-18T00:13:52.206Z,50.43
2022-12-18T00:16:23.355Z,52.53
2022-12-18T00:18:51.093Z,56.47
2022-12-18T00:21:18.263Z,58.13
2022-12-18T00:23:46.965Z,49.40
2022-12-18T00:26:16.136Z,52.10
2022-12-18T00:28:43.576Z,55.57
2022-12-18T00:31:12.502Z,50.07
2022-12-18T00:33:39.721Z,55.47
2022-12-18T00:36:11.842Z,52.17
2022-12-18T00:38:39.702Z,47.40
2022-12-18T00:41:07.880Z,51.87
2022-12-18T00:43:34.737Z,52.03
2022-12-18T00:46:01.541Z,54.43
2022-12-18T00:48:28.397Z,47.70
2022-12-18T00:50:55.461Z,52.50
2022-12-18T00:53:22.334Z,44.43
2022-12-18T00:55:49.157Z,44.50
2022-12-18T00:58:16.933Z,47.60
2022-12-18T01:00:43.860Z,50.43
2022-12-18T01:03:11.013Z,44.50
2022-12-18T01:05:41.120Z,47.23
2022-12-18T01:08:08.083Z,51.67
2022-12-18T01:10:34.895Z,46.90
2022-12-18T01:13:01.725Z,53.63
2022-12-18T01:15:28.451Z,50.47
2022-12-18T01:17:55.167Z,50.67
2022-12-18T01:20:22.094Z,49.67
2022-12-18T01:22:48.890Z,51.40
2022-12-18T01:25:15.672Z,53.30
2022-12-18T01:27:42.496Z,53.43
2022-12-18T01:30:09.667Z,60.47
2022-12-18T01:32:36.589Z,54.23
2022-12-18T01:35:03.913Z,55.83
2022-12-18T01:37:30.652Z,53.17
2022-12-18T01:39:57.425Z,52.90
2022-12-18T01:42:24.250Z,54.80
2022-12-18T01:44:59.612Z,54.87
2022-12-18T01:47:28.006Z,52.83
2022-12-18T01:49:54.864Z,53.47
2022-12-18T01:52:21.881Z,48.83
2022-12-18T01:54:49.979Z,47.07
2022-12-18T01:57:16.728Z,51.20
2022-12-18T01:59:43.845Z,64.90
2022-12-18T02:02:10.745Z,64.90
2022-12-18T02:04:37.670Z,58.00
2022-12-18T02:07:16.261Z,55.73
2022-12-18T02:09:50.052Z,50.57
2022-12-18T02:12:21.610Z,59.47
2022-12-18T02:15:26.297Z,58.03
2022-12-18T02:17:58.700Z,54.23
2022-12-18T02:20:48.558Z,55.67
2022-12-18T02:23:33.498Z,51.33
2022-12-18T02:26:02.908Z,51.67
2022-12-18T02:28:31.688Z,52.47
2022-12-18T02:30:58.876Z,49.40
2022-12-18T02:33:25.611Z,55.77
2022-12-18T02:35:52.558Z,52.30
2022-12-18T02:38:19.291Z,48.50
2022-12-18T02:40:46.027Z,50.10
2022-12-18T02:43:14.731Z,47.83
2022-12-18T02:45:51.418Z,50.87
2022-12-18T02:48:19.730Z,43.37
2022-12-18T02:50:49.437Z,49.20
2022-12-18T02:53:23.196Z,50.53
2022-12-18T02:56:05.213Z,47.33
2022-12-18T02:58:38.758Z,59.87
2022-12-18T03:01:10.094Z,49.20
2022-12-18T03:03:42.861Z,47.67
2022-12-18T03:06:24.974Z,52.20
2022-12-18T03:08:54.170Z,51.87
2022-12-18T03:11:40.897Z,52.70
2022-12-18T03:14:07.857Z,51.93
2022-12-18T03:16:34.739Z,53.00
2022-12-18T03:19:12.992Z,55.50
2022-12-18T03:21:46.634Z,51.70
2022-12-18T03:24:13.395Z,53.37
2022-12-18T03:26:42.440Z,50.57
2022-12-18T03:29:14.071Z,54.57
2022-12-18T03:31:41.724Z,53.80
2022-12-18T03:34:13.781Z,58.63
2022-12-18T03:36:40.511Z,53.73
2022-12-18T03:39:07.304Z,55.63
2022-12-18T03:42:32.435Z,61.67
2022-12-18T03:45:00.795Z,53.80
2022-12-18T03:47:28.747Z,59.63
2022-12-18T03:50:28.183Z,55.13
2022-12-18T03:53:11.843Z,59.93
2022-12-18T03:55:38.572Z,71.77
2022-12-18T03:58:05.516Z,66.17
2022-12-18T04:00:32.287Z,74.07
2022-12-18T04:02:59.056Z,75.40
2022-12-18T04:05:26.321Z,69.67
2022-12-18T04:07:53.219Z,81.60
2022-12-18T04:10:20.041Z,73.10
2022-12-18T04:12:46.865Z,76.40
2022-12-18T04:15:14.034Z,75.03
2022-12-18T04:17:44.315Z,71.33
2022-12-18T04:20:11.405Z,77.55
2022-12-18T04:22:38.259Z,73.17
2022-12-18T04:25:05.751Z,78.10
2022-12-18T04:27:32.503Z,69.47
2022-12-18T04:29:59.297Z,72.07
2022-12-18T04:32:26.146Z,68.47
2022-12-18T04:34:52.884Z,70.17
2022-12-18T04:37:19.650Z,93.90
2022-12-18T04:39:46.406Z,83.77
2022-12-18T04:42:13.173Z,90.43
2022-12-18T04:44:39.937Z,106.23
2022-12-18T04:47:06.683Z,101.73
2022-12-18T04:49:33.434Z,77.60
2022-12-18T04:52:00.212Z,77.03
2022-12-18T04:54:27.014Z,78.27
2022-12-18T04:56:53.778Z,81.63
2022-12-18T04:59:21.929Z,66.50
2022-12-18T05:01:48.852Z,77.90
2022-12-18T05:04:15.755Z,74.90
2022-12-18T05:06:42.703Z,77.70
2022-12-18T05:09:09.461Z,77.93
2022-12-18T05:11:36.503Z,76.80
2022-12-18T05:14:03.308Z,74.33
2022-12-18T05:16:30.238Z,69.57
2022-12-18T05:18:57.067Z,84.17
2022-12-18T05:21:23.855Z,86.30
2022-12-18T05:23:50.673Z,86.87
2022-12-18T05:26:18.337Z,82.73
2022-12-18T05:28:45.193Z,85.83
2022-12-18T05:31:12.401Z,71.43
2022-12-18T05:33:39.777Z,65.87
2022-12-18T05:36:08.052Z,72.60
2022-12-18T05:38:36.307Z,67.03
2022-12-18T05:41:03.178Z,75.47
2022-12-18T05:43:30.709Z,68.03
2022-12-18T05:45:58.554Z,66.50
2022-12-18T05:48:25.457Z,63.03
2022-12-18T05:50:52.271Z,54.13
2022-12-18T05:53:20.351Z,54.07
2022-12-18T05:55:47.227Z,55.40
2022-12-18T05:58:14.376Z,50.60
2022-12-18T06:00:43.646Z,48.17
2022-12-18T06:03:11.010Z,53.93
2022-12-18T06:05:42.267Z,56.67
2022-12-18T06:08:09.149Z,47.20
2022-12-18T06:10:35.962Z,50.50
2022-12-18T06:13:02.799Z,56.43
2022-12-18T06:15:29.519Z,58.67
2022-12-18T06:17:56.266Z,55.17
2022-12-18T06:20:23.266Z,61.17
2022-12-18T06:22:49.994Z,48.00
2022-12-18T06:25:16.881Z,47.00
2022-12-18T06:27:43.837Z,48.60
2022-12-18T06:30:11.928Z,50.80
2022-12-18T06:32:39.454Z,52.33
2022-12-18T06:35:06.827Z,52.67
2022-12-18T06:37:33.678Z,51.10
2022-12-18T06:40:01.928Z,45.97
2022-12-18T06:42:29.695Z,54.57
2022-12-18T06:44:56.433Z,54.03
2022-12-18T06:47:23.133Z,45.63
2022-12-18T06:49:49.920Z,53.97
2022-12-18T06:52:16.681Z,49.27
2022-12-18T06:54:43.446Z,49.73
2022-12-18T06:57:10.186Z,50.70
2022-12-18T06:59:37.033Z,51.77
2022-12-18T07:02:03.908Z,57.83
2022-12-18T07:04:31.092Z,48.80
2022-12-18T07:06:58.381Z,54.37
2022-12-18T07:09:25.444Z,55.43
2022-12-18T07:11:52.935Z,52.67
2022-12-18T07:14:19.717Z,51.53
2022-12-18T07:16:46.576Z,53.23
2022-12-18T07:19:13.316Z,58.10
2022-12-18T07:21:40.106Z,56.87
2022-12-18T07:24:07.393Z,55.40
2022-12-18T07:26:34.199Z,51.43
2022-12-18T07:29:00.932Z,60.03
2022-12-18T07:31:27.813Z,59.73
2022-12-18T07:33:54.697Z,55.33
2022-12-18T07:36:21.508Z,54.27
2022-12-18T07:38:49.314Z,52.83
2022-12-18T07:41:16.274Z,54.93
2022-12-18T07:43:43.612Z,88.27
2022-12-18T07:46:10.748Z,50.80
2022-12-18T07:48:40.702Z,53.03
2022-12-18T07:51:07.665Z,50.50
2022-12-18T07:53:34.759Z,58.23
2022-12-18T07:56:27.231Z,46.70
2022-12-18T07:58:55.317Z,47.00
2022-12-18T08:01:22.238Z,67.90
2022-12-18T08:03:49.106Z,57.73
2022-12-18T08:06:18.377Z,50.10
2022-12-18T08:08:45.165Z,53.30
2022-12-18T08:11:11.917Z,61.67
2022-12-18T08:13:39.043Z,56.63
2022-12-18T08:16:07.439Z,54.97
2022-12-18T08:18:35.306Z,51.57
2022-12-18T08:21:16.360Z,55.20
2022-12-18T08:26:14.456Z,48.30
2022-12-18T08:28:41.453Z,56.95
2022-12-18T08:31:08.632Z,51.13
2022-12-18T08:33:35.966Z,51.53
2022-12-18T08:36:03.248Z,50.63
2022-12-18T08:38:30.000Z,49.87
2022-12-18T08:41:07.826Z,51.07
2022-12-18T08:43:53.334Z,52.90
2022-12-18T08:46:20.933Z,50.83
2022-12-18T08:48:48.100Z,57.20
2022-12-18T08:51:16.753Z,52.85
2022-12-18T08:53:44.148Z,49.30
2022-12-18T08:56:11.186Z,49.47
2022-12-18T08:58:37.999Z,64.07
2022-12-18T09:01:05.911Z,54.67
2022-12-18T09:03:32.889Z,60.33
2022-12-18T09:06:00.402Z,66.07
2022-12-18T09:08:27.589Z,62.10
2022-12-18T09:10:54.392Z,51.83
2022-12-18T09:13:21.372Z,57.08
2022-12-18T09:15:52.979Z,45.38
2022-12-18T09:18:20.482Z,44.97
2022-12-18T09:20:47.561Z,52.08
2022-12-18T09:23:14.565Z,63.15
2022-12-18T09:25:41.727Z,68.47
2022-12-18T09:28:12.970Z,64.38
2022-12-18T09:30:40.946Z,65.95
2022-12-18T09:33:08.046Z,62.92
2022-12-18T09:35:40.836Z,80.00
2022-12-18T09:38:07.812Z,68.72
2022-12-18T09:40:37.177Z,65.88
2022-12-18T09:43:05.647Z,84.28
2022-12-18T09:45:43.342Z,61.08
2022-12-18T09:48:15.411Z,58.92
2022-12-18T09:50:42.763Z,52.10
2022-12-18T09:53:16.514Z,52.42
2022-12-18T09:55:44.347Z,51.17
2022-12-18T09:58:18.498Z,52.42
2022-12-18T10:00:45.393Z,55.30
2022-12-18T10:03:16.199Z,53.13
2022-12-18T10:06:02.794Z,79.68
2022-12-18T10:08:39.118Z,44.72
2022-12-18T10:11:18.371Z,48.13
2022-12-18T10:13:55.916Z,72.07
2022-12-18T10:16:42.935Z,353.50
2022-12-18T10:19:25.079Z,41.10
2022-12-18T10:22:09.066Z,40.45
2022-12-18T10:24:46.740Z,43.03
2022-12-18T10:27:18.226Z,41.90
2022-12-18T10:29:45.820Z,38.75
2022-12-18T10:32:19.784Z,35.72
2022-12-18T10:34:54.059Z,56.42
2022-12-18T10:37:26.715Z,35.05
2022-12-18T10:40:22.518Z,45.17
2022-12-18T10:43:07.417Z,34.47
2022-12-18T10:45:34.323Z,36.58
2022-12-18T10:48:01.235Z,36.15
2022-12-18T10:51:09.321Z,32.70
2022-12-18T10:53:31.771Z,30.48
2022-12-18T10:55:59.953Z,32.50
2022-12-18T10:58:30.931Z,31.80
2022-12-18T11:01:13.784Z,31.83
2022-12-18T11:03:48.357Z,28.38
2022-12-18T11:06:16.029Z,29.77
2022-12-18T11:08:44.084Z,30.65
2022-12-18T11:11:37.556Z,33.38
2022-12-18T11:14:04.965Z,35.28
2022-12-18T11:16:35.149Z,27.55
2022-12-18T11:19:23.585Z,28.30
2022-12-18T11:21:50.446Z,27.83
2022-12-18T11:24:22.065Z,24.83
2022-12-18T11:26:48.855Z,29.23
2022-12-18T11:29:19.167Z,25.58
2022-12-18T11:31:46.912Z,22.70
2022-12-18T11:34:30.876Z,23.48
2022-12-18T11:36:58.923Z,29.90
2022-12-18T11:39:33.415Z,19.13
2022-12-18T11:42:24.117Z,21.25
2022-12-18T11:45:00.740Z,23.80
2022-12-18T11:47:52.729Z,17.80
2022-12-18T11:50:32.606Z,20.38
2022-12-18T11:53:04.187Z,17.73
2022-12-18T11:55:50.851Z,18.95
2022-12-18T11:58:31.973Z,17.33
2022-12-18T12:01:21.661Z,17.45
2022-12-18T12:04:08.347Z,17.00
2022-12-18T12:07:16.793Z,14.23
2022-12-18T12:10:05.955Z,14.93
2022-12-18T12:12:48.991Z,14.13
2022-12-18T12:15:24.872Z,16.27
2022-12-18T12:18:11.144Z,13.27
2022-12-18T12:20:38.351Z,14.40
2022-12-18T12:23:33.016Z,19.58
2022-12-18T12:26:25.086Z,15.93
2022-12-18T12:29:10.466Z,16.98
2022-12-18T12:31:57.036Z,18.33
2022-12-18T12:34:32.664Z,17.08
2022-12-18T12:37:24.316Z,16.85
2022-12-18T12:39:51.090Z,16.10
2022-12-18T12:42:58.373Z,17.87
2022-12-18T12:45:40.216Z,19.15
2022-12-18T12:48:08.231Z,17.88
2022-12-18T12:50:35.445Z,24.17
2022-12-18T12:53:02.728Z,20.10
2022-12-18T12:55:30.753Z,16.65
2022-12-18T12:58:14.635Z,16.70
2022-12-18T13:00:57.842Z,19.92
2022-12-18T13:03:42.657Z,25.38
2022-12-18T13:06:24.700Z,19.10
2022-12-18T13:08:56.999Z,22.48
2022-12-18T13:12:00.396Z,21.47
2022-12-18T13:14:28.896Z,18.27
2022-12-18T13:17:30.009Z,25.55
2022-12-18T13:20:15.605Z,22.23
2022-12-18T13:22:43.935Z,22.07
2022-12-18T13:25:37.420Z,23.33
2022-12-18T13:28:16.811Z,21.43
2022-12-18T13:30:52.582Z,18.05
2022-12-18T13:33:46.905Z,20.03
2022-12-18T13:36:26.775Z,20.03
2022-12-18T13:39:17.312Z,115.83
2022-12-18T13:41:55.485Z,16.13
2022-12-18T13:44:38.523Z,18.13
2022-12-18T13:47:29.316Z,20.23
2022-12-18T13:49:56.148Z,21.30
2022-12-18T13:52:25.367Z,24.87
2022-12-18T13:54:53.722Z,21.40
2022-12-18T13:57:39.308Z,22.10
2022-12-18T14:00:24.722Z,20.47
2022-12-18T14:02:52.014Z,21.23
2022-12-18T14:05:30.744Z,22.00
2022-12-18T14:08:01.706Z,19.90
2022-12-18T14:13:31.476Z,19.27
2022-12-18T14:15:58.682Z,17.77
2022-12-18T14:18:30.028Z,23.43
2022-12-18T14:20:58.645Z,21.88
2022-12-18T14:23:44.078Z,26.37
2022-12-18T14:26:28.202Z,20.30
2022-12-18T14:28:58.863Z,28.03
2022-12-18T14:31:27.123Z,31.52
2022-12-18T14:33:54.164Z,27.60
2022-12-18T14:36:30.024Z,29.27
2022-12-18T14:38:57.779Z,26.00
2022-12-18T14:41:24.772Z,35.50
2022-12-18T14:43:52.546Z,38.23
2022-12-18T14:46:34.237Z,40.40
2022-12-18T14:49:05.773Z,41.43
2022-12-18T14:51:34.102Z,38.37
2022-12-18T14:54:03.194Z,47.53
2022-12-18T14:56:37.008Z,42.33
2022-12-18T14:59:25.670Z,39.87
2022-12-18T15:01:52.489Z,42.17
2022-12-18T15:04:28.181Z,43.13
2022-12-18T15:07:11.205Z,48.30
2022-12-18T15:09:38.924Z,54.03
2022-12-18T15:12:43.748Z,39.87
2022-12-18T15:15:38.470Z,42.33
2022-12-18T15:18:12.919Z,44.13
2022-12-18T15:20:56.941Z,37.43
2022-12-18T15:23:37.041Z,48.43
2022-12-18T15:26:09.953Z,37.17
2022-12-18T15:28:49.652Z,41.37
2022-12-18T15:31:17.941Z,42.37
2022-12-18T15:33:47.124Z,37.30
2022-12-18T15:36:17.601Z,39.87
2022-12-18T15:38:49.024Z,38.20
2022-12-18T15:41:22.944Z,42.13
2022-12-18T15:43:52.290Z,42.10
2022-12-18T15:46:23.789Z,43.40
2022-12-18T15:48:55.401Z,49.27
2022-12-18T15:51:29.473Z,43.37
2022-12-18T15:53:57.638Z,45.17
2022-12-18T15:56:43.060Z,44.97
2022-12-18T15:59:16.798Z,50.93
2022-12-18T16:01:45.453Z,46.53
2022-12-18T16:04:13.334Z,42.10
2022-12-18T16:07:12.734Z,43.33
2022-12-18T16:09:27.300Z,44.47
2022-12-18T16:11:54.139Z,42.53
2022-12-18T16:14:27.654Z,52.93
2022-12-18T16:16:59.038Z,78.23
2022-12-18T16:19:25.939Z,110.20
2022-12-18T16:21:53.609Z,157.57
2022-12-18T16:24:28.348Z,164.13
2022-12-18T16:26:57.376Z,183.93
2022-12-18T16:29:27.838Z,204.87
2022-12-18T16:31:58.339Z,213.68
2022-12-18T16:34:29.778Z,209.32
2022-12-18T16:37:04.823Z,173.77
2022-12-18T16:39:33.059Z,187.20
2022-12-18T16:42:00.035Z,190.23
2022-12-18T16:44:28.781Z,129.13
2022-12-18T16:46:55.660Z,74.83
2022-12-18T16:49:22.586Z,63.47
2022-12-18T16:51:49.341Z,73.73
2022-12-18T16:54:19.153Z,71.83
2022-12-18T16:56:49.798Z,64.13
2022-12-18T16:59:16.687Z,70.93
2022-12-18T17:01:44.815Z,65.97
2022-12-18T17:04:11.903Z,72.80
2022-12-18T17:06:43.668Z,74.87
2022-12-18T17:09:15.328Z,88.90
2022-12-18T17:11:42.217Z,85.53
2022-12-18T17:14:14.931Z,110.63
2022-12-18T17:16:41.789Z,90.10
2022-12-18T17:19:13.576Z,99.13
2022-12-18T17:21:44.514Z,108.33
2022-12-18T17:24:11.341Z,113.57
2022-12-18T17:26:38.202Z,145.40
2022-12-18T17:29:05.095Z,196.47
2022-12-18T17:31:32.174Z,151.47
2022-12-18T17:33:59.245Z,181.27
2022-12-18T17:36:28.968Z,216.13
2022-12-18T17:38:57.175Z,247.50
2022-12-18T17:41:24.295Z,254.63
2022-12-18T17:43:54.426Z,274.80
2022-12-18T17:46:21.285Z,250.15
2022-12-18T17:48:48.167Z,261.83
2022-12-18T17:51:15.483Z,253.00
2022-12-18T17:53:42.792Z,253.93
2022-12-18T17:56:12.371Z,257.03
2022-12-18T17:58:39.347Z,245.37
2022-12-18T18:01:06.684Z,234.60
2022-12-18T18:03:33.972Z,249.57
2022-12-18T18:06:01.512Z,233.63
2022-12-18T18:08:28.653Z,237.83
2022-12-18T18:10:55.710Z,249.87
2022-12-18T18:13:46.909Z,217.90
2022-12-18T18:16:14.085Z,187.40
2022-12-18T18:18:40.895Z,191.93
2022-12-18T18:21:08.590Z,159.03
2022-12-18T18:23:36.068Z,159.70
2022-12-18T18:26:07.332Z,135.33
2022-12-18T18:28:34.412Z,160.93
2022-12-18T18:31:08.440Z,152.30
2022-12-18T18:33:35.452Z,188.37
2022-12-18T18:36:02.677Z,217.83
2022-12-18T18:38:29.464Z,218.47
2022-12-18T18:41:03.369Z,227.47
2022-12-18T18:43:30.614Z,190.43
2022-12-18T18:45:58.743Z,204.87
2022-12-18T18:48:26.645Z,196.07
2022-12-18T18:53:26.704Z,243.90
2022-12-18T18:56:26.126Z,263.00
2022-12-18T18:58:40.269Z,257.17
2022-12-18T19:01:17.881Z,265.80
2022-12-18T19:03:45.041Z,265.63
2022-12-18T19:06:14.955Z,268.60
2022-12-18T19:08:42.041Z,280.80
2022-12-18T19:11:47.951Z,251.43
2022-12-18T19:14:15.178Z,258.17
2022-12-18T19:16:42.263Z,232.07
2022-12-18T19:19:09.325Z,216.53
2022-12-18T19:21:37.587Z,212.20
2022-12-18T19:24:04.737Z,175.73
2022-12-18T19:26:31.562Z,159.43
2022-12-18T19:29:03.247Z,148.43
2022-12-18T19:31:35.210Z,137.80
2022-12-18T19:34:03.401Z,136.63
2022-12-18T19:36:31.067Z,122.97
2022-12-18T19:38:59.146Z,147.60
2022-12-18T19:41:26.263Z,226.50
2022-12-18T19:43:58.494Z,253.63
2022-12-18T19:46:25.428Z,234.97
2022-12-18T19:48:52.376Z,241.20
2022-12-18T19:51:21.307Z,227.67
2022-12-18T19:53:48.774Z,227.30
2022-12-18T19:56:18.133Z,275.07
2022-12-18T19:58:45.435Z,294.43
2022-12-18T20:01:13.657Z,325.23
2022-12-18T20:06:25.016Z,237.50
2022-12-18T20:08:52.170Z,261.30
2022-12-18T20:11:20.899Z,259.10
2022-12-18T20:13:47.795Z,254.20
2022-12-18T20:16:14.757Z,236.07
2022-12-18T20:18:41.626Z,225.13
2022-12-18T20:21:13.723Z,233.47
2022-12-18T20:23:41.265Z,194.17
2022-12-18T20:26:08.622Z,191.53
2022-12-18T20:28:35.578Z,153.27
2022-12-18T20:31:03.798Z,156.37
2022-12-18T20:33:30.951Z,146.27
2022-12-18T20:36:06.172Z,141.53
2022-12-18T20:38:33.899Z,147.83
2022-12-18T20:41:02.549Z,154.40
2022-12-18T20:43:29.991Z,169.10
2022-12-18T20:46:03.723Z,199.67
2022-12-18T20:48:30.852Z,239.93
2022-12-18T20:51:03.912Z,257.17
2022-12-18T20:53:31.006Z,237.03
2022-12-18T20:55:57.837Z,225.07
2022-12-18T20:58:24.947Z,207.80
2022-12-18T21:01:06.320Z,225.33
2022-12-18T21:03:33.222Z,219.90
2022-12-18T21:06:00.095Z,211.27
2022-12-18T21:08:26.866Z,214.30
2022-12-18T21:10:54.136Z,200.80
2022-12-18T21:13:22.617Z,238.57
2022-12-18T21:15:49.604Z,250.20
2022-12-18T21:18:16.367Z,214.27
2022-12-18T21:20:43.297Z,287.50
2022-12-18T21:23:16.227Z,158.40
2022-12-18T21:25:44.389Z,144.07
2022-12-18T21:28:12.456Z,146.93
2022-12-18T21:30:39.419Z,129.43
2022-12-18T21:33:06.354Z,118.97
2022-12-18T21:35:33.119Z,116.20
2022-12-18T21:37:59.896Z,125.10
2022-12-18T21:40:29.401Z,121.40
2022-12-18T21:43:25.268Z,123.47
2022-12-18T21:45:52.051Z,134.87
2022-12-18T21:48:18.860Z,136.23
2022-12-18T21:50:45.647Z,125.60
2022-12-18T21:53:12.419Z,124.53
2022-12-18T21:55:39.371Z,124.03
2022-12-18T21:58:06.091Z,122.67
2022-12-18T22:00:32.853Z,125.23
2022-12-18T22:03:17.058Z,113.17
2022-12-18T22:05:45.370Z,112.00
2022-12-18T22:08:13.683Z,109.63
2022-12-18T22:10:40.758Z,107.43
2022-12-18T22:13:08.027Z,98.47
2022-12-18T22:15:34.866Z,108.97
2022-12-18T22:18:02.026Z,101.70
2022-12-18T22:20:29.929Z,99.20
2022-12-18T22:22:57.191Z,95.47
2022-12-18T22:25:23.973Z,99.27
2022-12-18T22:28:23.255Z,95.20
2022-12-18T22:30:50.302Z,93.30
2022-12-18T22:33:21.701Z,97.77
2022-12-18T22:35:48.405Z,107.00
2022-12-18T22:38:15.120Z,100.73
2022-12-18T22:40:41.954Z,103.63
2022-12-18T22:43:08.818Z,96.87
2022-12-18T22:45:35.729Z,99.87
2022-12-18T22:48:05.545Z,98.33
2022-12-18T22:50:33.835Z,100.53
2022-12-18T22:53:00.637Z,96.10
2022-12-18T22:55:27.439Z,98.73
2022-12-18T22:57:54.154Z,101.43
2022-12-18T23:00:24.645Z,96.30
2022-12-18T23:03:00.386Z,98.80
2022-12-18T23:05:29.023Z,107.57
2022-12-18T23:07:55.901Z,95.07
2022-12-18T23:10:22.708Z,100.03
2022-12-18T23:12:49.465Z,98.83
2022-12-18T23:15:16.494Z,99.13
2022-12-18T23:17:45.675Z,84.27
2022-12-18T23:20:12.745Z,82.80
2022-12-18T23:22:39.587Z,85.60
2022-12-18T23:25:06.535Z,92.90
2022-12-18T23:27:33.350Z,81.80
2022-12-18T23:30:00.223Z,82.20
2022-12-18T23:32:27.003Z,78.60
2022-12-18T23:34:53.738Z,79.83
2022-12-18T23:37:49.915Z,84.17
2022-12-18T23:40:07.869Z,88.57
2022-12-18T23:42:34.630Z,84.37
2022-12-18T23:45:01.336Z,76.80
2022-12-18T23:47:32.160Z,80.38
2022-12-18T23:49:59.031Z,79.43
2022-12-18T23:52:26.049Z,79.53
2022-12-18T23:54:53.330Z,77.23
2022-12-18T23:57:20.336Z,88.53
2022-12-18T23:59:50.268Z,84.68
